createdAt,value
2019-05-16T00:00:32.597Z,17.42
2019-05-16T00:03:28.106Z,18.55
2019-05-16T00:06:23.028Z,17.48
2019-05-16T00:09:18.458Z,17.27
2019-05-16T00:12:13.911Z,17.82
2019-05-16T00:15:10.011Z,17.23
2019-05-16T00:18:05.402Z,17.52
2019-05-16T00:21:00.794Z,18.65
2019-05-16T00:23:58.653Z,18.15
2019-05-16T00:26:53.933Z,18.65
2019-05-16T00:29:50.621Z,18.50
2019-05-16T00:32:48.168Z,18.80
2019-05-16T00:35:43.698Z,18.52
2019-05-16T00:38:39.461Z,19.32
2019-05-16T00:41:35.525Z,19.10
2019-05-16T00:44:31.753Z,18.45
2019-05-16T00:47:28.380Z,17.98
2019-05-16T00:50:23.605Z,20.05
2019-05-16T00:53:20.361Z,16.97
2019-05-16T00:56:18.375Z,18.17
2019-05-16T00:59:12.998Z,18.87
2019-05-16T01:02:08.972Z,17.50
2019-05-16T01:05:04.922Z,18.85
2019-05-16T01:08:01.048Z,18.92
2019-05-16T01:10:58.673Z,19.05
2019-05-16T01:13:58.578Z,20.12
2019-05-16T01:16:58.156Z,20.25
2019-05-16T01:19:57.882Z,21.10
2019-05-16T01:22:58.056Z,20.10
2019-05-16T01:25:52.724Z,19.15
2019-05-16T01:28:48.648Z,18.32
2019-05-16T01:31:44.935Z,18.70
2019-05-16T01:34:40.831Z,19.40
2019-05-16T01:37:38.390Z,21.00
2019-05-16T01:40:34.082Z,20.80
2019-05-16T01:43:29.815Z,21.17
2019-05-16T01:46:25.782Z,21.33
2019-05-16T01:49:21.879Z,20.20
2019-05-16T01:52:17.852Z,20.60
2019-05-16T01:55:13.689Z,20.17
2019-05-16T01:58:13.172Z,21.97
2019-05-16T02:01:13.371Z,20.88
2019-05-16T02:04:08.703Z,20.77
2019-05-16T02:07:03.006Z,20.72
2019-05-16T02:10:00.558Z,20.37
2019-05-16T02:12:58.165Z,20.48
2019-05-16T02:15:55.081Z,21.05
2019-05-16T02:18:50.875Z,21.33
2019-05-16T02:21:50.730Z,22.00
2019-05-16T02:24:47.995Z,21.97
2019-05-16T02:27:44.285Z,22.58
2019-05-16T02:30:42.501Z,23.47
2019-05-16T02:33:40.600Z,23.38
2019-05-16T02:36:35.003Z,24.02
2019-05-16T02:39:31.958Z,24.37
2019-05-16T02:42:31.009Z,23.10
2019-05-16T02:45:25.161Z,22.62
2019-05-16T02:48:21.839Z,22.52
2019-05-16T02:51:20.947Z,22.98
2019-05-16T02:54:15.876Z,22.77
2019-05-16T02:57:16.864Z,23.90
2019-05-16T03:00:13.973Z,28.38
2019-05-16T03:03:11.929Z,24.50
2019-05-16T03:06:11.133Z,25.10
2019-05-16T03:09:06.131Z,24.15
2019-05-16T03:12:03.917Z,23.73
2019-05-16T03:15:03.868Z,24.70
2019-05-16T03:18:04.300Z,25.00
2019-05-16T03:21:00.548Z,24.27
2019-05-16T03:23:56.259Z,23.70
2019-05-16T03:26:53.417Z,41.10
2019-05-16T03:29:50.655Z,31.77
2019-05-16T03:32:46.268Z,29.02
2019-05-16T03:35:44.575Z,35.23
2019-05-16T03:38:41.113Z,37.25
2019-05-16T03:41:36.209Z,25.35
2019-05-16T03:44:33.489Z,27.40
2019-05-16T03:47:31.256Z,26.05
2019-05-16T03:50:26.602Z,23.40
2019-05-16T03:53:22.818Z,23.07
2019-05-16T03:56:32.493Z,22.13
2019-05-16T03:59:28.018Z,23.83
2019-05-16T04:02:23.927Z,25.88
2019-05-16T04:05:21.211Z,18.87
2019-05-16T04:08:23.731Z,21.93
2019-05-16T04:11:17.777Z,18.67
2019-05-16T04:14:11.743Z,18.60
2019-05-16T04:17:10.900Z,19.15
2019-05-16T04:20:07.195Z,17.87
2019-05-16T04:23:03.448Z,18.95
2019-05-16T04:26:11.363Z,17.62
2019-05-16T04:29:22.056Z,18.42
2019-05-16T04:32:24.950Z,19.42
2019-05-16T04:35:35.456Z,19.45
2019-05-16T04:38:40.661Z,20.40
2019-05-16T04:41:33.716Z,18.55
2019-05-16T04:44:31.458Z,16.87
2019-05-16T04:47:31.458Z,18.60
2019-05-16T04:50:26.374Z,19.05
2019-05-16T04:53:21.899Z,18.05
2019-05-16T04:56:21.517Z,24.10
2019-05-16T04:59:20.706Z,18.10
2019-05-16T05:02:14.938Z,19.17
2019-05-16T05:05:12.609Z,18.12
2019-05-16T05:08:10.872Z,19.15
2019-05-16T05:11:07.031Z,17.57
2019-05-16T05:14:04.749Z,20.15
2019-05-16T05:17:04.856Z,19.25
2019-05-16T05:20:01.083Z,20.30
2019-05-16T05:23:00.462Z,20.20
2019-05-16T05:26:00.458Z,25.68
2019-05-16T05:29:00.125Z,19.75
2019-05-16T05:32:03.531Z,20.70
2019-05-16T05:35:10.576Z,21.20
2019-05-16T05:38:00.352Z,21.40
2019-05-16T05:41:01.002Z,20.23
2019-05-16T05:43:59.882Z,27.62
2019-05-16T05:47:00.595Z,20.80
2019-05-16T05:52:40.833Z,21.75
2019-05-16T05:55:35.888Z,22.37
2019-05-16T05:58:36.671Z,22.42
2019-05-16T06:01:33.497Z,21.35
2019-05-16T06:04:43.975Z,25.55
2019-05-16T06:07:40.421Z,21.45
2019-05-16T06:10:40.952Z,20.15
2019-05-16T06:13:40.268Z,19.60
2019-05-16T06:16:40.051Z,21.45
2019-05-16T06:19:55.397Z,27.75
2019-05-16T06:22:59.874Z,21.75
2019-05-16T06:26:06.455Z,18.70
2019-05-16T06:29:10.175Z,18.25
2019-05-16T06:32:19.739Z,18.27
2019-05-16T06:35:17.160Z,18.15
2019-05-16T06:38:15.205Z,18.42
2019-05-16T06:41:19.719Z,19.12
2019-05-16T06:44:30.889Z,17.90
2019-05-16T06:48:00.728Z,18.32
2019-05-16T06:50:57.260Z,18.85
2019-05-16T06:53:55.333Z,17.55
2019-05-16T06:56:53.331Z,18.02
2019-05-16T06:59:53.504Z,18.55
2019-05-16T07:02:52.809Z,18.98
2019-05-16T07:05:50.645Z,16.75
2019-05-16T07:08:54.883Z,16.73
2019-05-16T07:11:54.462Z,17.85
2019-05-16T07:16:01.739Z,18.17
2019-05-16T07:23:13.276Z,18.92
2019-05-16T07:26:10.587Z,19.10
2019-05-16T07:29:15.907Z,18.55
2019-05-16T07:32:32.688Z,18.92
2019-05-16T07:35:34.764Z,18.15
2019-05-16T07:38:32.342Z,18.45
2019-05-16T07:41:34.261Z,19.00
2019-05-16T07:44:40.845Z,19.75
2019-05-16T07:47:50.654Z,18.35
2019-05-16T07:50:43.265Z,18.70
2019-05-16T07:53:40.712Z,19.73
2019-05-16T08:00:01.610Z,18.27
2019-05-16T08:02:59.885Z,17.57
2019-05-16T08:05:54.759Z,17.52
2019-05-16T08:08:51.873Z,18.12
2019-05-16T08:11:53.764Z,17.42
2019-05-16T08:14:50.294Z,16.05
2019-05-16T08:17:51.264Z,15.08
2019-05-16T08:20:43.966Z,16.50
2019-05-16T08:23:41.638Z,16.82
2019-05-16T08:26:40.027Z,16.30
2019-05-16T08:29:33.756Z,16.60
2019-05-16T08:32:31.177Z,15.68
2019-05-16T08:35:27.993Z,14.85
2019-05-16T08:38:24.547Z,14.30
2019-05-16T08:41:23.594Z,12.82
2019-05-16T08:44:21.512Z,13.08
2019-05-16T08:47:16.719Z,12.98
2019-05-16T08:50:15.225Z,13.40
2019-05-16T08:53:17.205Z,13.40
2019-05-16T08:56:22.601Z,13.43
2019-05-16T08:59:33.550Z,14.95
2019-05-16T09:05:16.044Z,14.10
2019-05-16T09:08:14.415Z,13.13
2019-05-16T09:11:37.460Z,12.63
2019-05-16T09:14:27.637Z,11.70
2019-05-16T09:17:18.374Z,11.43
2019-05-16T09:20:18.760Z,11.18
2019-05-16T09:23:18.574Z,11.73
2019-05-16T09:26:19.435Z,11.97
2019-05-16T09:29:17.099Z,12.47
2019-05-16T09:32:17.938Z,11.33
2019-05-16T09:35:13.893Z,11.28
2019-05-16T09:38:23.787Z,11.38
2019-05-16T09:41:21.642Z,11.80
2019-05-16T09:44:27.322Z,11.50
2019-05-16T09:47:23.482Z,11.08
2019-05-16T09:50:21.829Z,10.82
2019-05-16T09:53:20.445Z,11.60
2019-05-16T09:56:22.520Z,12.03
2019-05-16T09:59:39.957Z,12.65
2019-05-16T10:02:38.766Z,11.70
2019-05-16T10:05:46.509Z,12.98
2019-05-16T10:08:47.086Z,12.23
2019-05-16T10:12:05.455Z,12.45
2019-05-16T10:14:48.135Z,12.28
2019-05-16T10:17:50.916Z,13.05
2019-05-16T10:20:50.014Z,13.25
2019-05-16T10:23:49.649Z,13.00
2019-05-16T10:26:54.117Z,13.25
2019-05-16T10:29:53.355Z,12.90
2019-05-16T10:32:52.278Z,13.28
2019-05-16T10:35:57.903Z,13.40
2019-05-16T10:38:51.261Z,15.28
2019-05-16T10:41:48.978Z,13.15
2019-05-16T10:44:48.514Z,13.65
2019-05-16T10:47:48.038Z,13.40
2019-05-16T10:50:47.064Z,13.20
2019-05-16T10:54:03.601Z,12.40
2019-05-16T10:56:51.951Z,12.53
2019-05-16T11:00:06.764Z,15.15
2019-05-16T11:02:58.719Z,13.28
2019-05-16T11:06:06.070Z,14.80
2019-05-16T11:09:06.458Z,15.85
2019-05-16T11:12:08.291Z,14.70
2019-05-16T11:15:12.040Z,15.10
2019-05-16T11:18:19.929Z,14.85
2019-05-16T11:21:23.442Z,15.88
2019-05-16T11:24:23.134Z,15.08
2019-05-16T11:27:26.667Z,14.98
2019-05-16T11:30:31.369Z,14.70
2019-05-16T11:33:34.022Z,13.32
2019-05-16T11:39:37.233Z,14.07
2019-05-16T11:42:37.735Z,12.93
2019-05-16T11:45:37.851Z,12.07
2019-05-16T11:48:37.720Z,14.30
2019-05-16T11:51:33.859Z,12.20
2019-05-16T11:54:30.196Z,13.53
2019-05-16T11:57:31.448Z,14.30
2019-05-16T12:00:30.571Z,13.18
2019-05-16T12:03:27.867Z,13.98
2019-05-16T12:06:21.140Z,14.45
2019-05-16T12:09:23.723Z,14.73
2019-05-16T12:12:22.584Z,14.95
2019-05-16T12:15:21.162Z,15.08
2019-05-16T12:18:17.805Z,15.15
2019-05-16T12:21:17.272Z,15.03
2019-05-16T12:24:29.062Z,15.00
2019-05-16T12:27:19.345Z,15.38
2019-05-16T12:30:17.656Z,15.28
2019-05-16T12:33:18.696Z,14.93
2019-05-16T12:36:14.611Z,14.53
2019-05-16T12:39:12.571Z,15.68
2019-05-16T12:42:21.432Z,16.70
2019-05-16T12:45:27.568Z,17.12
2019-05-16T12:48:23.477Z,19.30
2019-05-16T12:51:21.403Z,19.00
2019-05-16T12:54:18.293Z,20.27
2019-05-16T12:57:18.232Z,18.85
2019-05-16T13:00:15.617Z,19.07
2019-05-16T13:03:10.177Z,18.82
2019-05-16T13:06:05.212Z,19.20
2019-05-16T13:09:00.528Z,20.75
2019-05-16T13:12:00.154Z,19.80
2019-05-16T13:14:58.320Z,19.55
2019-05-16T13:17:57.150Z,18.95
2019-05-16T13:20:57.404Z,22.07
2019-05-16T13:23:57.372Z,22.25
2019-05-16T13:26:52.574Z,22.77
2019-05-16T13:29:49.615Z,24.02
2019-05-16T13:32:44.604Z,26.82
2019-05-16T13:35:42.101Z,29.92
2019-05-16T13:38:39.775Z,29.27
2019-05-16T13:41:38.065Z,29.77
2019-05-16T13:44:37.679Z,29.75
2019-05-16T13:47:37.692Z,29.65
2019-05-16T13:50:37.189Z,28.30
2019-05-16T13:53:32.910Z,33.20
2019-05-16T13:56:29.109Z,29.95
2019-05-16T13:59:27.850Z,31.15
2019-05-16T14:02:22.377Z,29.77
2019-05-16T14:05:18.562Z,27.62
2019-05-16T14:08:16.895Z,23.67
2019-05-16T14:11:11.009Z,25.02
2019-05-16T14:14:07.986Z,26.87
2019-05-16T14:17:03.170Z,29.98
2019-05-16T14:19:58.053Z,26.20
2019-05-16T14:22:57.163Z,26.10
2019-05-16T14:25:50.773Z,27.02
2019-05-16T14:28:48.871Z,25.70
2019-05-16T14:31:42.617Z,23.27
2019-05-16T14:34:38.427Z,24.67
2019-05-16T14:37:37.833Z,40.58
2019-05-16T14:40:32.383Z,24.85
2019-05-16T14:43:28.991Z,23.40
2019-05-16T14:46:27.201Z,24.45
2019-05-16T14:49:19.879Z,23.50
2019-05-16T14:52:14.896Z,24.07
2019-05-16T14:55:11.871Z,25.97
2019-05-16T14:58:08.594Z,25.43
2019-05-16T15:01:07.361Z,26.17
2019-05-16T15:04:03.156Z,21.85
2019-05-16T15:07:00.484Z,23.62
2019-05-16T15:09:57.702Z,26.55
2019-05-16T15:12:54.089Z,22.58
2019-05-16T15:15:50.423Z,21.50
2019-05-16T15:18:47.396Z,22.30
2019-05-16T15:21:42.531Z,23.05
2019-05-16T15:24:42.887Z,19.65
2019-05-16T15:27:40.248Z,19.42
2019-05-16T15:30:38.981Z,18.98
2019-05-16T15:33:36.483Z,19.75
2019-05-16T15:36:37.270Z,19.15
2019-05-16T15:39:31.661Z,18.42
2019-05-16T15:42:27.743Z,19.20
2019-05-16T15:45:35.698Z,19.15
2019-05-16T15:48:22.187Z,17.73
2019-05-16T15:51:21.370Z,17.87
2019-05-16T15:54:22.086Z,20.00
2019-05-16T15:57:18.660Z,20.05
2019-05-16T16:00:18.260Z,19.52
2019-05-16T16:03:14.310Z,18.90
2019-05-16T16:06:10.893Z,18.95
2019-05-16T16:09:08.849Z,17.75
2019-05-16T16:12:08.217Z,17.90
2019-05-16T16:15:07.375Z,22.93
2019-05-16T16:18:08.589Z,20.50
2019-05-16T16:21:02.800Z,19.70
2019-05-16T16:24:00.850Z,23.42
2019-05-16T16:26:59.249Z,19.77
2019-05-16T16:29:57.919Z,18.35
2019-05-16T16:32:54.255Z,18.50
2019-05-16T16:35:50.595Z,19.82
2019-05-16T16:38:47.967Z,18.92
2019-05-16T16:41:47.570Z,19.30
2019-05-16T16:44:47.065Z,20.17
2019-05-16T16:47:42.496Z,21.52
2019-05-16T16:50:39.663Z,19.27
2019-05-16T16:53:37.731Z,19.55
2019-05-16T16:56:36.841Z,20.05
2019-05-16T16:59:33.193Z,21.82
2019-05-16T17:02:30.757Z,18.37
2019-05-16T17:05:26.706Z,19.45
2019-05-16T17:08:23.542Z,18.27
2019-05-16T17:11:21.439Z,17.65
2019-05-16T17:14:17.529Z,18.07
2019-05-16T17:17:12.356Z,20.55
2019-05-16T17:20:09.785Z,17.00
2019-05-16T17:23:06.779Z,17.37
2019-05-16T17:26:03.462Z,18.00
2019-05-16T17:29:01.171Z,18.12
2019-05-16T17:32:05.960Z,17.32
2019-05-16T17:34:56.645Z,18.90
2019-05-16T17:37:54.300Z,22.02
2019-05-16T17:40:52.476Z,24.92
2019-05-16T17:43:49.597Z,40.88
2019-05-16T17:46:47.087Z,27.93
2019-05-16T17:49:46.207Z,27.22
2019-05-16T17:52:41.609Z,27.32
2019-05-16T17:55:38.246Z,27.30
2019-05-16T17:58:34.198Z,27.10
2019-05-16T18:01:29.745Z,26.00
2019-05-16T18:04:26.662Z,27.52
2019-05-16T18:07:22.838Z,24.05
2019-05-16T18:10:20.628Z,24.40
2019-05-16T18:13:17.023Z,25.82
2019-05-16T18:16:12.673Z,22.80
2019-05-16T18:19:09.227Z,23.05
2019-05-16T18:22:06.541Z,22.10
2019-05-16T18:25:02.416Z,19.42
2019-05-16T18:27:59.348Z,21.35
2019-05-16T18:30:56.689Z,19.23
2019-05-16T18:33:52.901Z,17.75
2019-05-16T18:36:49.330Z,16.87
2019-05-16T18:39:47.262Z,17.50
2019-05-16T18:42:41.673Z,16.65
2019-05-16T18:45:37.303Z,16.50
2019-05-16T18:48:32.841Z,16.48
2019-05-16T18:51:30.225Z,16.00
2019-05-16T18:54:26.653Z,16.20
2019-05-16T18:57:23.327Z,15.60
2019-05-16T19:00:21.634Z,15.35
2019-05-16T19:03:20.115Z,15.75
2019-05-16T19:06:17.396Z,16.10
2019-05-16T19:09:16.469Z,16.70
2019-05-16T19:12:12.381Z,16.35
2019-05-16T19:15:08.952Z,17.15
2019-05-16T19:18:06.363Z,17.95
2019-05-16T19:21:02.085Z,17.50
2019-05-16T19:24:01.029Z,16.75
2019-05-16T19:26:58.533Z,18.55
2019-05-16T19:29:56.792Z,17.60
2019-05-16T19:32:52.247Z,16.50
2019-05-16T19:35:50.479Z,16.80
2019-05-16T19:38:46.666Z,17.00
2019-05-16T19:41:41.950Z,18.17
2019-05-16T19:44:37.772Z,19.65
2019-05-16T19:47:40.712Z,18.10
2019-05-16T19:50:32.634Z,18.10
2019-05-16T19:53:28.005Z,17.55
2019-05-16T19:56:22.749Z,16.48
2019-05-16T19:59:17.469Z,16.70
2019-05-16T20:02:12.396Z,17.07
2019-05-16T20:05:08.634Z,17.48
2019-05-16T20:08:06.400Z,17.02
2019-05-16T20:11:00.251Z,17.50
2019-05-16T20:13:56.752Z,17.27
2019-05-16T20:16:50.364Z,18.82
2019-05-16T20:19:46.973Z,17.52
2019-05-16T20:22:40.480Z,18.07
2019-05-16T20:25:37.074Z,17.50
2019-05-16T20:28:32.766Z,18.10
2019-05-16T20:31:29.481Z,17.65
2019-05-16T20:34:26.800Z,18.60
2019-05-16T20:37:20.421Z,17.60
2019-05-16T20:40:17.270Z,17.15
2019-05-16T20:43:13.054Z,18.20
2019-05-16T20:46:08.284Z,16.95
2019-05-16T20:49:03.503Z,17.32
2019-05-16T20:51:58.726Z,16.48
2019-05-16T20:54:54.392Z,16.25
2019-05-16T20:57:49.313Z,16.12
2019-05-16T21:00:49.439Z,16.48
2019-05-16T21:03:40.976Z,15.58
2019-05-16T21:06:36.276Z,15.88
2019-05-16T21:09:31.783Z,16.32
2019-05-16T21:12:27.767Z,16.73
2019-05-16T21:15:23.634Z,15.63
2019-05-16T21:18:19.716Z,15.65
2019-05-16T21:21:19.012Z,15.48
2019-05-16T21:24:10.250Z,15.08
2019-05-16T21:27:07.946Z,15.43
2019-05-16T21:30:02.987Z,15.20
2019-05-16T21:32:58.341Z,16.90
2019-05-16T21:35:53.566Z,15.58
2019-05-16T21:38:49.054Z,18.40
2019-05-16T21:41:43.994Z,15.85
2019-05-16T21:44:38.699Z,15.63
2019-05-16T21:47:34.043Z,15.93
2019-05-16T21:50:29.481Z,15.53
2019-05-16T21:53:24.162Z,15.68
2019-05-16T21:56:19.238Z,15.38
2019-05-16T21:59:13.809Z,15.98
2019-05-16T22:02:08.527Z,14.85
2019-05-16T22:05:03.305Z,15.25
2019-05-16T22:07:59.559Z,15.23
2019-05-16T22:10:57.104Z,17.17
2019-05-16T22:13:49.958Z,15.38
2019-05-16T22:16:46.842Z,18.60
2019-05-16T22:19:40.342Z,16.65
2019-05-16T22:22:38.259Z,15.50
2019-05-16T22:25:32.987Z,15.58
2019-05-16T22:28:30.137Z,15.98
2019-05-16T22:31:26.814Z,15.48
2019-05-16T22:34:20.113Z,16.80
2019-05-16T22:37:17.614Z,15.72
2019-05-16T22:40:17.191Z,14.65
2019-05-16T22:43:14.123Z,15.38
2019-05-16T22:46:12.014Z,15.70
2019-05-16T22:49:10.432Z,15.70
2019-05-16T22:52:08.286Z,15.83
2019-05-16T22:55:07.483Z,16.12
2019-05-16T22:58:07.309Z,16.50
2019-05-16T23:01:06.921Z,15.13
2019-05-16T23:04:00.883Z,15.63
2019-05-16T23:06:56.462Z,16.87
2019-05-16T23:09:51.695Z,15.78
2019-05-16T23:12:46.567Z,15.40
2019-05-16T23:15:41.598Z,15.80
2019-05-16T23:18:37.554Z,17.23
2019-05-16T23:21:33.183Z,16.55
2019-05-16T23:24:28.497Z,18.15
2019-05-16T23:27:27.123Z,16.95
2019-05-16T23:30:21.341Z,18.30
2019-05-16T23:33:18.212Z,18.20
2019-05-16T23:36:17.252Z,17.67
2019-05-16T23:39:14.487Z,17.02
2019-05-16T23:42:13.208Z,16.87
2019-05-16T23:45:10.584Z,17.70
2019-05-16T23:48:10.710Z,17.40
2019-05-16T23:51:04.038Z,19.37
2019-05-16T23:53:58.679Z,20.08
2019-05-16T23:56:53.355Z,21.20
2019-05-16T23:59:48.369Z,28.92
